Terminal Aerodrome Forecast
Issued by NWS

Home | Current Version | Previous Version | Text Only | Print | Product List | Glossary On
Versions: 1 2 3 4 5 6 7 8 9 10 11 12 13 14 15 16 17 18 19
000
FTPA31 PHFO 300601 CCA
TAFHOG
TAF COR
PHOG 300601Z 3006/0106 36008KT 6SM -RA SCT015 BKN035
      TEMPO 3006/3010 36010G17KT 5SM SHRA BR SCT010 BKN020 OVC030
     FM302000 VRB06KT P6SM VCSH SCT015 BKN035
      AMD LTD TO VIS AND WIND 3009/3016=

USA.gov is the U.S. government's official web portal to all federal, state and local government web resources and services.